Time;durP1;ratioP1;P1;durP2;ratioP2;P2;SDS_P1;SDS_P2;PMS_P1;PMS_P2;Temp;Humidity;BMP_temperature;BMP_pressure;BME280_temperature;BME280_humidity;BME280_pressure;Samples;Min_cycle;Max_cycle;Signal;HPM_P1;HPM_P2
2021/03/30 00:00:23;;;;;;;21.10;18.30;;;;;;;12.45;67.36;102479.94;5078018;28;20180;-69
2021/03/30 00:02:49;;;;;;;26.47;17.63;;;;;;;12.24;68.12;102474.06;5081262;28;20505;-69
2021/03/30 00:05:14;;;;;;;26.83;19.77;;;;;;;12.32;67.28;102480.41;5082576;28;20170;-69
2021/03/30 00:07:40;;;;;;;20.93;18.20;;;;;;;12.32;67.15;102480.41;5064618;28;20421;-69
2021/03/30 00:10:06;;;;;;;25.27;18.60;;;;;;;12.21;67.45;102467.00;5082325;28;20175;-69
2021/03/30 00:12:32;;;;;;;22.97;17.50;;;;;;;12.27;66.55;102474.16;5083721;28;20314;-68
2021/03/30 00:14:57;;;;;;;20.00;17.40;;;;;;;12.47;65.91;102466.91;5081786;28;20423;-70
2021/03/30 00:17:23;;;;;;;23.83;15.80;;;;;;;12.16;66.46;102479.03;5081633;28;20165;-69
2021/03/30 00:19:48;;;;;;;22.80;16.23;;;;;;;12.13;66.35;102472.00;5082278;28;20550;-69
2021/03/30 00:22:13;;;;;;;25.93;15.67;;;;;;;12.33;65.44;102470.84;5081595;28;20244;-68
2021/03/30 00:24:38;;;;;;;19.73;15.27;;;;;;;12.32;64.31;102469.94;5081441;28;20216;-69
2021/03/30 00:27:04;;;;;;;19.83;14.93;;;;;;;12.53;63.60;102476.66;5082035;28;20232;-69
2021/03/30 00:29:30;;;;;;;18.27;14.53;;;;;;;12.10;64.35;102477.13;5080569;28;20577;-70
2021/03/30 00:31:55;;;;;;;18.47;14.70;;;;;;;12.50;62.95;102477.44;5081200;28;20291;-68
2021/03/30 00:34:20;;;;;;;22.47;14.23;;;;;;;12.40;63.08;102491.13;5081749;28;20179;-70
2021/03/30 00:36:45;;;;;;;21.27;14.07;;;;;;;12.35;62.24;102488.34;5081337;28;20177;-68
2021/03/30 00:39:11;;;;;;;16.33;13.77;;;;;;;12.26;62.71;102483.72;5081266;28;20218;-69
2021/03/30 00:41:41;;;;;;;19.87;14.00;;;;;;;12.27;63.39;102484.59;5081784;28;20630;-69
2021/03/30 00:44:13;;;;;;;17.00;12.73;;;;;;;12.31;62.51;102478.63;5081282;28;20188;-69
2021/03/30 00:46:40;;;;;;;19.43;14.20;;;;;;;12.20;63.03;102485.25;5081004;28;20423;-69
2021/03/30 00:49:05;;;;;;;17.83;13.60;;;;;;;12.33;61.86;102482.19;5081239;28;20418;-69
2021/03/30 00:51:30;;;;;;;15.70;12.70;;;;;;;12.33;61.58;102478.69;5080950;28;20880;-68
2021/03/30 00:53:56;;;;;;;21.30;13.90;;;;;;;12.50;61.26;102487.03;5064102;28;20176;-68
2021/03/30 00:56:22;;;;;;;18.57;13.63;;;;;;;12.35;63.56;102488.34;5080927;28;20173;-68
2021/03/30 00:58:47;;;;;;;17.60;13.77;;;;;;;12.09;62.98;102492.78;5080775;28;20169;-68
2021/03/30 01:01:13;;;;;;;18.97;13.83;;;;;;;12.39;62.25;102495.44;5063947;28;20253;-68
2021/03/30 01:03:38;;;;;;;19.27;13.40;;;;;;;11.97;64.14;102501.09;5063468;28;20233;-68
2021/03/30 01:06:03;;;;;;;21.70;14.67;;;;;;;12.21;64.00;102500.13;5063629;28;20252;-69
2021/03/30 01:08:40;;;;;;;20.13;15.23;;;;;;;12.40;63.02;102502.44;5081342;28;20165;-68
2021/03/30 01:11:22;;;;;;;17.30;14.73;;;;;;;12.25;64.27;102502.00;5063450;28;20441;-69
2021/03/30 01:14:11;;;;;;;21.37;16.57;;;;;;;12.24;64.26;102490.63;5079301;28;20696;-68
2021/03/30 01:16:44;;;;;;;29.70;16.73;;;;;;;12.34;64.47;102494.44;5063187;28;20427;-68
2021/03/30 01:19:19;;;;;;;24.97;17.77;;;;;;;12.32;64.40;102490.00;5063280;28;20459;-68
2021/03/30 01:22:02;;;;;;;25.93;16.60;;;;;;;11.96;64.86;102496.72;5080448;28;20415;-68
2021/03/30 01:24:35;;;;;;;24.50;16.13;;;;;;;12.18;64.44;102493.06;5080294;28;20458;-67
2021/03/30 01:27:29;;;;;;;24.50;16.60;;;;;;;12.08;64.01;102494.50;5080510;28;20427;-68
2021/03/30 01:29:55;;;;;;;21.07;16.70;;;;;;;12.17;63.93;102493.91;5076324;28;20433;-68
2021/03/30 01:32:33;;;;;;;23.07;16.07;;;;;;;12.14;63.97;102501.66;5062799;28;20463;-68
2021/03/30 01:35:01;;;;;;;24.10;16.30;;;;;;;12.03;64.59;102498.69;5063028;28;20255;-68
2021/03/30 01:37:27;;;;;;;18.20;15.30;;;;;;;12.29;63.06;102488.16;5080340;28;20411;-68
2021/03/30 01:39:56;;;;;;;24.60;16.60;;;;;;;12.06;64.00;102490.94;5080334;28;20416;-69
2021/03/30 01:42:24;;;;;;;20.93;14.77;;;;;;;11.91;64.88;102496.53;5063088;28;20436;-69
2021/03/30 01:44:51;;;;;;;21.20;15.50;;;;;;;12.06;63.88;102495.31;5062715;28;20407;-69
2021/03/30 01:47:18;;;;;;;22.63;15.60;;;;;;;12.04;63.96;102487.41;5062650;28;20436;-69
2021/03/30 01:49:44;;;;;;;19.03;15.60;;;;;;;12.21;63.13;102484.44;5063076;28;20407;-68
2021/03/30 01:52:09;;;;;;;18.40;15.60;;;;;;;11.80;64.76;102497.94;5062535;28;20561;-68
2021/03/30 01:54:36;;;;;;;25.83;15.40;;;;;;;11.91;64.30;102486.09;5062530;28;20173;-68
2021/03/30 01:57:01;;;;;;;20.57;14.67;;;;;;;11.92;64.22;102487.88;5063050;28;20468;-68
2021/03/30 01:59:27;;;;;;;21.20;14.77;;;;;;;11.63;64.51;102494.75;5045759;28;20419;-69
2021/03/30 02:01:53;;;;;;;19.47;13.60;;;;;;;12.10;63.46;102489.31;5079642;28;20487;-68
2021/03/30 02:04:23;;;;;;;20.77;14.30;;;;;;;12.12;63.00;102485.91;5062709;28;20238;-68
2021/03/30 02:06:50;;;;;;;20.67;14.07;;;;;;;12.13;62.58;102494.66;5062401;28;20423;-69
2021/03/30 02:09:20;;;;;;;22.00;14.63;;;;;;;12.30;61.49;102482.09;5079619;28;20423;-68
2021/03/30 02:11:54;;;;;;;21.47;13.40;;;;;;;12.04;61.74;102490.03;5065072;28;20498;-68
2021/03/30 02:14:19;;;;;;;18.57;13.20;;;;;;;11.93;61.20;102491.34;5063595;28;20510;-69
2021/03/30 02:16:54;;;;;;;19.60;13.83;;;;;;;11.94;61.21;102494.03;5079342;28;20415;-69
2021/03/30 02:19:24;;;;;;;17.17;13.00;;;;;;;11.89;60.55;102497.31;5062254;28;20218;-68
2021/03/30 02:22:06;;;;;;;18.03;11.93;;;;;;;11.61;62.14;102491.19;5062049;28;20762;-68
2021/03/30 02:24:32;;;;;;;20.20;13.10;;;;;;;11.95;61.26;102489.72;5078783;28;20491;-69
2021/03/30 02:26:59;;;;;;;17.80;12.63;;;;;;;11.59;62.15;102498.97;5062071;28;20407;-69
2021/03/30 02:29:27;;;;;;;21.40;13.30;;;;;;;11.72;61.45;102497.66;5079383;28;20419;-69
2021/03/30 02:31:53;;;;;;;20.57;12.87;;;;;;;11.73;61.36;102494.22;5061892;28;20474;-70
2021/03/30 02:34:23;;;;;;;19.87;12.73;;;;;;;11.65;61.52;102492.16;5079715;28;20664;-69
2021/03/30 02:36:53;;;;;;;23.73;13.33;;;;;;;11.92;60.36;102494.81;5061876;28;20531;-69
2021/03/30 02:39:19;;;;;;;18.63;13.70;;;;;;;11.74;60.84;102488.13;5062222;28;20417;-69
2021/03/30 02:41:44;;;;;;;18.20;11.83;;;;;;;11.86;60.31;102492.00;5078758;28;20850;-69
2021/03/30 02:44:11;;;;;;;16.00;12.87;;;;;;;11.77;60.69;102498.72;5079031;28;20417;-70
2021/03/30 02:46:38;;;;;;;17.30;12.30;;;;;;;11.45;61.67;102495.88;5062035;28;20476;-70
2021/03/30 02:49:04;;;;;;;16.80;11.90;;;;;;;11.76;60.61;102493.44;5078952;28;20422;-70
2021/03/30 02:51:31;;;;;;;18.73;12.20;;;;;;;11.67;60.29;102493.13;5061218;28;20557;-70
2021/03/30 02:53:57;;;;;;;17.63;12.40;;;;;;;11.50;60.55;102497.78;5061786;28;20447;-69
2021/03/30 02:56:23;;;;;;;17.33;11.50;;;;;;;11.83;59.31;102498.03;5061458;28;20430;-69
2021/03/30 02:58:52;;;;;;;17.27;13.00;;;;;;;11.40;61.24;102499.19;5061321;28;20420;-68
2021/03/30 03:01:19;;;;;;;19.67;11.90;;;;;;;11.67;59.89;102501.84;5061519;28;20165;-69
2021/03/30 03:03:45;;;;;;;14.93;11.60;;;;;;;11.60;59.97;102500.75;5078464;28;20439;-69
2021/03/30 03:06:10;;;;;;;20.33;12.23;;;;;;;11.68;59.76;102501.00;5060928;28;20684;-68
2021/03/30 03:08:36;;;;;;;19.83;11.93;;;;;;;11.61;59.79;102501.66;5061532;28;20403;-68
2021/03/30 03:11:03;;;;;;;22.60;11.93;;;;;;;11.73;59.42;102499.44;5060948;28;20168;-69
2021/03/30 03:13:28;;;;;;;17.83;11.63;;;;;;;11.83;59.31;102497.16;5060815;28;20561;-68
2021/03/30 03:15:54;;;;;;;15.20;11.63;;;;;;;11.56;59.24;102492.78;5061595;28;20784;-68
2021/03/30 03:18:19;;;;;;;16.33;11.50;;;;;;;11.46;60.00;102496.81;5078132;28;20173;-68
2021/03/30 03:20:46;;;;;;;17.10;12.00;;;;;;;11.31;60.38;102501.47;5078105;28;20172;-68
2021/03/30 03:23:12;;;;;;;15.57;11.43;;;;;;;11.40;60.17;102499.19;5061099;28;20240;-68
2021/03/30 03:25:38;;;;;;;18.03;11.93;;;;;;;11.67;58.95;102496.63;5057440;28;20755;-68
2021/03/30 03:28:03;;;;;;;17.37;12.47;;;;;;;11.53;59.37;102493.56;5057524;28;20431;-69
2021/03/30 03:30:29;;;;;;;16.30;11.10;;;;;;;11.45;59.11;102492.41;5058685;28;20265;-69
2021/03/30 03:33:10;;;;;;;18.33;11.57;;;;;;;11.72;58.14;102494.19;5057122;28;20205;-69
2021/03/30 03:35:36;;;;;;;15.53;10.27;;;;;;;11.54;59.55;102497.03;5057562;28;20173;-69
2021/03/30 03:38:02;;;;;;;18.40;11.70;;;;;;;11.68;58.68;102498.41;5057887;28;20668;-68
2021/03/30 03:40:28;;;;;;;18.13;11.47;;;;;;;11.51;59.49;102494.31;5058000;28;20165;-69
2021/03/30 03:42:53;;;;;;;17.03;11.87;;;;;;;11.62;58.35;102488.63;5058416;28;20455;-68
2021/03/30 03:45:19;;;;;;;18.97;11.90;;;;;;;11.56;58.45;102493.66;5057854;28;20467;-68
2021/03/30 03:47:44;;;;;;;16.93;11.90;;;;;;;11.34;59.71;102497.25;5057845;28;20181;-69
2021/03/30 03:50:10;;;;;;;16.57;11.00;;;;;;;11.44;58.97;102495.84;5058256;28;20166;-68
2021/03/30 03:52:40;;;;;;;19.63;12.07;;;;;;;11.43;58.80;102497.56;5057631;28;20201;-69
2021/03/30 03:55:06;;;;;;;17.23;11.33;;;;;;;11.46;59.11;102492.44;5057121;28;20408;-69
2021/03/30 03:57:35;;;;;;;17.83;11.10;;;;;;;11.16;59.56;102494.00;5057577;28;20431;-69
2021/03/30 04:00:00;;;;;;;14.87;11.10;;;;;;;11.47;58.29;102498.56;5057157;28;20427;-68
2021/03/30 04:02:28;;;;;;;16.67;11.50;;;;;;;11.48;58.83;102499.47;5057511;28;20424;-68
2021/03/30 04:05:18;;;;;;;20.53;11.70;;;;;;;11.70;57.92;102507.16;5057590;28;20215;-69
2021/03/30 04:07:51;;;;;;;16.23;10.50;;;;;;;11.38;58.42;102506.97;5040395;28;20687;-69
2021/03/30 04:10:20;;;;;;;22.40;11.47;;;;;;;11.60;57.69;102505.97;5059230;28;20522;-69
2021/03/30 04:12:46;;;;;;;19.77;12.57;;;;;;;11.66;57.97;102500.06;5058948;28;20481;-69
2021/03/30 04:15:12;;;;;;;18.73;11.53;;;;;;;11.26;59.29;102510.03;5057014;28;20435;-69
2021/03/30 04:17:40;;;;;;;14.87;11.70;;;;;;;11.50;58.93;102505.59;5058131;28;20399;-69
2021/03/30 04:20:14;;;;;;;18.57;11.90;;;;;;;11.26;59.60;102501.31;5057592;28;20581;-67
2021/03/30 04:22:40;;;;;;;21.93;12.47;;;;;;;11.32;59.01;102501.53;5057375;28;20420;-69
2021/03/30 04:25:06;;;;;;;19.83;13.03;;;;;;;11.54;59.02;102504.88;5056535;28;20710;-68
2021/03/30 04:27:32;;;;;;;21.43;12.90;;;;;;;11.65;58.14;102500.91;5040089;28;20575;-68
2021/03/30 04:29:58;;;;;;;22.20;14.63;;;;;;;11.39;59.07;102503.53;5057821;28;20408;-68
2021/03/30 04:32:23;;;;;;;19.10;13.03;;;;;;;11.48;58.79;102505.56;5057296;28;20563;-67
2021/03/30 04:34:48;;;;;;;16.47;12.50;;;;;;;11.42;59.09;102510.56;5057403;28;20682;-67
2021/03/30 04:37:14;;;;;;;17.60;13.30;;;;;;;11.55;59.45;102504.91;5057953;28;20259;-68
2021/03/30 04:39:39;;;;;;;21.13;14.10;;;;;;;11.53;58.86;102506.59;5056275;28;20209;-68
2021/03/30 04:42:05;;;;;;;19.57;12.63;;;;;;;11.48;59.10;102509.91;5057075;28;20197;-68
2021/03/30 04:44:30;;;;;;;18.10;13.67;;;;;;;11.28;59.99;102507.47;5057967;28;20173;-66
2021/03/30 04:46:55;;;;;;;20.53;14.10;;;;;;;11.55;59.53;102514.50;5057828;28;20543;-67
2021/03/30 04:49:20;;;;;;;20.67;14.83;;;;;;;11.23;60.58;102509.03;5060576;28;20256;-68
2021/03/30 04:51:46;;;;;;;18.90;14.30;;;;;;;11.44;60.38;102509.78;5061392;28;20200;-68
2021/03/30 04:54:11;;;;;;;21.40;15.03;;;;;;;11.11;61.24;102522.56;5060941;28;20178;-67
2021/03/30 04:56:37;;;;;;;23.50;16.03;;;;;;;11.48;60.30;102518.63;5060945;28;20209;-67
2021/03/30 04:59:05;;;;;;;24.70;15.80;;;;;;;11.35;61.24;102526.84;5061186;28;20545;-67
2021/03/30 05:01:30;;;;;;;22.73;16.40;;;;;;;11.35;61.38;102530.38;5060825;28;20184;-68
2021/03/30 05:03:56;;;;;;;19.43;15.60;;;;;;;11.40;61.96;102527.91;5060843;28;20420;-68
2021/03/30 05:06:21;;;;;;;21.13;17.13;;;;;;;11.35;61.62;102530.38;5060712;28;20177;-67
2021/03/30 05:08:46;;;;;;;23.27;18.13;;;;;;;11.72;60.67;102536.84;5061001;28;20442;-69
2021/03/30 05:11:12;;;;;;;24.60;17.90;;;;;;;11.71;60.92;102535.06;5060412;28;20178;-67
2021/03/30 05:13:37;;;;;;;27.63;18.67;;;;;;;11.67;60.80;102527.97;5061178;28;20239;-68
2021/03/30 05:16:02;;;;;;;20.27;17.97;;;;;;;11.24;61.49;102542.13;5060649;28;20486;-67
2021/03/30 05:18:27;;;;;;;22.17;17.03;;;;;;;11.56;61.28;102538.06;5059124;28;20434;-68
2021/03/30 05:20:53;;;;;;;22.27;16.70;;;;;;;11.77;61.25;102537.91;5061235;28;20493;-68
2021/03/30 05:23:18;;;;;;;23.90;16.90;;;;;;;11.67;60.46;102537.53;5060521;28;20166;-68
2021/03/30 05:25:43;;;;;;;22.80;16.97;;;;;;;11.83;60.09;102537.22;5072249;28;20511;-68
2021/03/30 05:28:09;;;;;;;24.83;17.90;;;;;;;11.61;60.49;102536.50;5079688;28;20223;-68
2021/03/30 05:30:34;;;;;;;20.83;17.17;;;;;;;11.47;61.16;102537.72;5078760;28;20173;-68
2021/03/30 05:32:59;;;;;;;23.63;16.20;;;;;;;11.68;60.44;102540.19;5079229;28;20212;-68
2021/03/30 05:35:25;;;;;;;21.60;16.30;;;;;;;11.92;59.48;102544.47;5081024;28;20173;-69
2021/03/30 05:37:50;;;;;;;21.83;16.10;;;;;;;11.88;59.97;102542.59;5080133;28;20184;-69
2021/03/30 05:40:18;;;;;;;26.10;16.87;;;;;;;11.69;60.09;102543.69;5080046;28;20248;-68
2021/03/30 05:42:44;;;;;;;25.00;17.80;;;;;;;11.71;60.56;102544.66;5080454;28;20188;-68
2021/03/30 05:45:11;;;;;;;24.13;17.53;;;;;;;11.74;60.21;102544.75;5080132;28;20818;-68
2021/03/30 05:47:37;;;;;;;27.10;18.10;;;;;;;11.97;59.73;102545.53;5079983;28;20412;-68
2021/03/30 05:50:08;;;;;;;25.27;19.43;;;;;;;12.06;59.38;102543.22;5080432;28;20689;-68
2021/03/30 05:52:47;;;;;;;22.23;16.53;;;;;;;11.91;60.02;102543.59;5077839;28;20217;-67
2021/03/30 05:55:20;;;;;;;20.60;17.20;;;;;;;11.84;59.15;102535.47;5062505;28;21006;-67
2021/03/30 05:57:46;;;;;;;22.10;18.00;;;;;;;12.19;58.87;102539.31;5078823;28;20406;-67
2021/03/30 06:00:12;;;;;;;22.40;17.77;;;;;;;12.51;57.57;102546.38;5061827;28;20427;-68
2021/03/30 06:02:42;;;;;;;21.20;17.00;;;;;;;14.22;52.45;102543.16;5080439;28;20561;-68
2021/03/30 06:05:11;;;;;;;20.93;16.47;;;;;;;15.38;48.74;102542.97;5062277;28;20681;-68
2021/03/30 06:07:37;;;;;;;20.03;15.40;;;;;;;16.22;46.80;102539.16;5062117;28;20423;-68
2021/03/30 06:10:05;;;;;;;18.97;16.83;;;;;;;16.67;44.66;102544.19;5080575;28;20407;-67
2021/03/30 06:12:30;;;;;;;17.87;16.10;;;;;;;17.11;43.62;102544.75;5076304;28;20445;-68
2021/03/30 06:15:00;;;;;;;18.77;15.60;;;;;;;17.60;42.92;102544.38;5077710;28;20458;-68
2021/03/30 06:17:26;;;;;;;20.20;16.10;;;;;;;17.45;42.53;102537.19;5077379;28;20204;-68
2021/03/30 06:19:57;;;;;;;17.17;15.00;;;;;;;17.57;42.23;102545.22;5077288;28;20442;-68
2021/03/30 06:22:26;;;;;;;20.10;17.70;;;;;;;17.75;41.16;102552.44;5078562;28;20531;-68
2021/03/30 06:24:53;;;;;;;18.90;14.50;;;;;;;17.81;41.69;102555.09;5073711;28;20525;-68
2021/03/30 06:27:21;;;;;;;16.03;13.53;;;;;;;17.47;41.80;102553.94;5057178;28;20687;-68
2021/03/30 06:29:48;;;;;;;20.70;15.10;;;;;;;17.59;40.94;102553.13;5077756;28;20425;-68
2021/03/30 06:32:16;;;;;;;19.63;14.60;;;;;;;17.96;40.42;102561.44;5078758;28;20516;-68
2021/03/30 06:34:43;;;;;;;17.80;14.00;;;;;;;18.45;39.60;102564.38;5077130;28;20465;-68
2021/03/30 06:37:27;;;;;;;15.63;13.90;;;;;;;18.26;39.13;102558.13;5078993;28;20769;-67
2021/03/30 06:39:55;;;;;;;15.13;13.10;;;;;;;18.64;38.43;102561.88;5078905;28;20407;-68
2021/03/30 06:42:39;;;;;;;18.17;14.53;;;;;;;18.88;38.36;102557.59;5078655;28;20430;-68
2021/03/30 06:45:11;;;;;;;15.97;13.70;;;;;;;18.94;37.82;102566.47;5077764;28;20527;-68
2021/03/30 06:47:37;;;;;;;17.10;13.43;;;;;;;19.87;36.43;102568.44;5075569;28;20442;-68
2021/03/30 06:50:09;;;;;;;15.53;13.40;;;;;;;19.54;36.46;102571.03;5061212;28;20425;-67
2021/03/30 06:52:37;;;;;;;15.60;14.00;;;;;;;19.64;35.88;102566.63;5077497;28;20239;-67
2021/03/30 06:55:06;;;;;;;17.90;13.53;;;;;;;19.60;36.30;102559.56;5078447;28;20397;-68
2021/03/30 06:57:42;;;;;;;15.13;13.53;;;;;;;20.19;34.82;102563.13;5078412;28;20462;-68
2021/03/30 07:00:19;;;;;;;16.43;13.80;;;;;;;19.59;35.68;102579.84;5058744;28;20532;-69
2021/03/30 07:02:50;;;;;;;16.60;12.60;;;;;;;20.14;34.53;102572.81;5078191;28;20399;-69
2021/03/30 07:05:37;;;;;;;16.63;13.17;;;;;;;21.13;32.74;102564.59;5075048;28;20439;-68
2021/03/30 07:08:13;;;;;;;14.97;13.40;;;;;;;21.25;32.98;102566.31;5078023;28;20434;-68
2021/03/30 07:10:46;;;;;;;13.00;11.70;;;;;;;21.03;32.99;102574.38;5076383;28;20479;-69
2021/03/30 07:13:13;;;;;;;20.03;12.87;;;;;;;20.57;33.77;102582.47;5075442;28;20475;-69
2021/03/30 07:15:39;;;;;;;14.57;12.90;;;;;;;20.91;33.50;102577.94;5077055;28;20485;-68
2021/03/30 07:18:07;;;;;;;15.37;11.80;;;;;;;21.35;32.66;102576.84;5077312;28;20427;-69
2021/03/30 07:20:37;;;;;;;15.90;11.73;;;;;;;21.31;32.71;102580.41;5059501;28;20173;-68
2021/03/30 07:23:07;;;;;;;14.93;11.63;;;;;;;21.57;32.50;102578.50;5077827;28;20427;-69
2021/03/30 07:25:35;;;;;;;15.20;12.63;;;;;;;21.04;32.63;102576.16;5075375;28;20474;-69
2021/03/30 07:28:03;;;;;;;14.13;12.10;;;;;;;20.79;33.53;102578.00;5077285;28;20443;-68
2021/03/30 07:30:30;;;;;;;13.70;11.47;;;;;;;22.21;31.04;102579.75;5077875;28;20502;-68
2021/03/30 07:32:58;;;;;;;12.97;11.67;;;;;;;22.57;30.62;102585.59;5077915;28;20897;-69
2021/03/30 07:35:26;;;;;;;12.23;11.00;;;;;;;21.40;32.59;102582.09;5077821;28;20925;-69
2021/03/30 07:38:03;;;;;;;12.83;11.40;;;;;;;22.82;31.03;102580.84;5076101;28;20833;-68
2021/03/30 07:40:29;;;;;;;11.63;10.53;;;;;;;21.81;32.63;102583.63;5076265;28;20457;-68
2021/03/30 07:42:56;;;;;;;12.73;11.30;;;;;;;21.44;32.72;102591.81;5076765;28;20434;-68
2021/03/30 07:45:23;;;;;;;12.77;11.30;;;;;;;21.77;32.18;102594.28;5078062;28;20193;-70
2021/03/30 07:47:49;;;;;;;16.83;11.20;;;;;;;21.54;32.67;102600.63;5076475;28;20881;-69
2021/03/30 07:50:17;;;;;;;14.03;11.87;;;;;;;21.94;32.46;102604.78;5060313;28;20433;-68
2021/03/30 07:52:47;;;;;;;13.73;11.50;;;;;;;22.08;32.01;102605.53;5078065;28;20455;-69
2021/03/30 07:55:19;;;;;;;12.40;10.90;;;;;;;22.57;31.29;102600.66;5077600;28;20468;-68
2021/03/30 07:58:05;;;;;;;13.23;11.13;;;;;;;23.14;30.14;102597.34;5075827;28;20833;-69
2021/03/30 08:00:30;;;;;;;13.53;10.03;;;;;;;23.05;30.46;102607.16;5068146;28;20497;-68
2021/03/30 08:02:57;;;;;;;11.73;10.53;;;;;;;24.42;28.94;102592.63;5077671;28;20496;-68
2021/03/30 08:05:28;;;;;;;10.73;9.70;;;;;;;24.12;29.16;102607.41;5077482;28;20221;-67
2021/03/30 08:07:56;;;;;;;16.13;10.50;;;;;;;23.46;30.27;102607.56;5078396;28;20415;-68
2021/03/30 08:10:30;;;;;;;13.83;10.87;;;;;;;23.70;29.77;102603.59;5046422;28;20844;-68
2021/03/30 08:13:35;;;;;;;12.03;10.70;;;;;;;23.03;30.80;102616.09;5057246;28;20463;-69
2021/03/30 08:16:03;;;;;;;11.27;10.17;;;;;;;24.01;29.63;102613.78;5060137;28;20426;-70
2021/03/30 08:18:31;;;;;;;10.47;9.37;;;;;;;24.10;29.95;102618.09;5064711;28;20439;-68
2021/03/30 08:21:14;;;;;;;12.67;10.43;;;;;;;22.40;32.29;102617.66;5051220;28;20440;-69
2021/03/30 08:23:52;;;;;;;12.50;10.17;;;;;;;23.54;30.56;102618.97;5061766;28;20431;-69
2021/03/30 08:26:27;;;;;;;17.27;10.77;;;;;;;22.51;31.83;102621.09;5061265;28;20532;-69
2021/03/30 08:29:02;;;;;;;12.03;9.70;;;;;;;23.39;30.99;102616.50;5067186;28;20437;-69
2021/03/30 08:31:34;;;;;;;13.43;9.70;;;;;;;22.70;33.43;102624.44;5069429;28;20470;-71
2021/03/30 08:34:03;;;;;;;16.50;10.20;;;;;;;23.81;31.32;102622.06;5081292;28;20435;-69
2021/03/30 08:36:45;;;;;;;11.47;9.17;;;;;;;25.12;29.62;102620.63;5081181;28;20458;-70
2021/03/30 08:39:30;;;;;;;13.67;10.17;;;;;;;24.91;29.10;102617.50;5061102;28;20439;-69
2021/03/30 08:42:01;;;;;;;12.77;10.00;;;;;;;24.96;29.09;102617.41;5060923;28;20860;-68
2021/03/30 08:44:44;;;;;;;11.57;9.70;;;;;;;24.82;29.29;102615.88;5071502;28;20533;-71
2021/03/30 08:47:24;;;;;;;13.83;9.17;;;;;;;25.31;29.16;102626.44;5061888;28;20471;-70
2021/03/30 08:49:49;;;;;;;11.33;9.27;;;;;;;25.13;29.71;102612.56;5079224;28;20461;-68
2021/03/30 08:52:17;;;;;;;10.67;9.27;;;;;;;25.20;29.42;102618.66;5070816;28;20475;-69
2021/03/30 08:54:53;;;;;;;11.00;9.10;;;;;;;25.57;28.85;102622.31;5065649;28;20665;-69
2021/03/30 08:57:25;;;;;;;10.40;9.30;;;;;;;23.98;31.09;102629.84;5048397;28;20439;-69
2021/03/30 08:59:51;;;;;;;11.20;9.70;;;;;;;26.21;28.57;102628.75;5072511;28;20557;-70
2021/03/30 09:02:24;;;;;;;12.00;9.60;;;;;;;26.43;28.04;102624.66;5070313;28;20526;-68
2021/03/30 09:04:52;;;;;;;12.47;9.40;;;;;;;26.51;28.06;102627.97;5067870;28;20217;-69
2021/03/30 09:07:18;;;;;;;12.33;9.70;;;;;;;25.49;29.15;102620.72;5052365;28;20427;-68
2021/03/30 09:09:44;;;;;;;12.00;9.10;;;;;;;25.48;29.43;102618.06;5080314;28;20450;-69
2021/03/30 09:12:19;;;;;;;14.00;9.93;;;;;;;26.86;27.38;102615.44;5078157;28;20200;-69
2021/03/30 09:14:58;;;;;;;10.33;9.43;;;;;;;25.47;29.36;102633.22;5066160;28;20255;-69
2021/03/30 09:17:24;;;;;;;11.37;9.40;;;;;;;25.45;29.42;102618.13;5080094;28;20418;-69
2021/03/30 09:19:53;;;;;;;12.07;10.40;;;;;;;25.05;30.53;102633.22;5061283;28;20447;-68
2021/03/30 09:22:40;;;;;;;10.57;9.47;;;;;;;26.27;29.17;102619.69;5079273;28;20578;-69
2021/03/30 09:27:55;;;;;;;10.60;9.50;;;;;;;26.53;28.77;102635.06;5074228;28;20445;-69
2021/03/30 09:30:21;;;;;;;12.80;9.37;;;;;;;25.57;30.57;102627.66;5059860;28;20440;-69
2021/03/30 09:32:48;;;;;;;12.30;10.13;;;;;;;25.19;30.65;102633.81;5074931;28;20205;-69
2021/03/30 09:35:23;;;;;;;12.03;10.83;;;;;;;24.04;32.92;102631.50;5048283;28;20447;-68
2021/03/30 09:37:53;;;;;;;10.57;9.53;;;;;;;24.23;32.45;102632.06;5049820;28;20450;-68
2021/03/30 09:40:22;;;;;;;9.20;8.20;;;;;;;24.76;31.59;102626.69;5077330;28;20836;-67
2021/03/30 09:42:47;;;;;;;11.07;8.60;;;;;;;26.21;29.22;102620.75;5075673;28;20431;-67
2021/03/30 09:45:15;;;;;;;10.50;9.50;;;;;;;26.44;28.78;102613.91;5067598;28;20458;-66
2021/03/30 09:47:41;;;;;;;10.67;9.40;;;;;;;26.59;28.61;102612.59;5061155;28;20272;-66
2021/03/30 09:50:08;;;;;;;9.83;8.73;;;;;;;26.79;28.29;102609.38;5056784;28;20920;-67
2021/03/30 09:52:36;;;;;;;10.30;9.10;;;;;;;25.75;29.66;102611.19;5069271;28;20269;-66
2021/03/30 09:55:02;;;;;;;10.70;9.27;;;;;;;26.75;28.44;102617.53;5065680;28;20415;-67
2021/03/30 09:57:29;;;;;;;9.63;8.33;;;;;;;25.94;30.11;102610.72;5068068;28;20459;-67
2021/03/30 09:59:55;;;;;;;15.20;5.20;;;;;;;27.17;30.08;102611.81;5066655;28;20566;-69
2021/03/30 10:02:26;;;;;;;8.80;8.00;;;;;;;28.37;27.52;102601.66;5059538;28;20836;-70
2021/03/30 10:04:53;;;;;;;9.40;8.40;;;;;;;27.64;27.43;102612.13;5072732;28;20466;-69
2021/03/30 10:07:19;;;;;;;8.53;7.73;;;;;;;27.15;29.53;102609.19;5049059;28;20452;-69
2021/03/30 10:10:05;;;;;;;8.97;8.07;;;;;;;27.05;28.72;102607.72;5056772;28;20864;-70
2021/03/30 10:12:47;;;;;;;8.93;7.90;;;;;;;25.40;31.21;102610.25;5077680;28;20550;-70
2021/03/30 10:15:13;;;;;;;10.17;7.63;;;;;;;27.11;28.53;102602.19;5061006;28;20448;-69
2021/03/30 10:17:39;;;;;;;8.63;7.77;;;;;;;26.92;28.98;102609.03;5052208;28;20466;-69
2021/03/30 10:20:05;;;;;;;9.77;7.73;;;;;;;26.71;29.27;102614.06;5063887;28;20190;-69
2021/03/30 10:22:33;;;;;;;8.50;7.30;;;;;;;27.45;29.10;102609.19;5068938;28;20447;-70
2021/03/30 10:25:14;;;;;;;9.17;8.27;;;;;;;27.77;27.85;102604.59;5062274;28;20250;-75
2021/03/30 10:27:57;;;;;;;8.73;7.93;;;;;;;25.66;30.65;102614.94;5066905;28;20458;-75
2021/03/30 10:30:39;;;;;;;9.13;8.27;;;;;;;25.22;31.51;102616.81;5072695;28;20468;-74
2021/03/30 10:33:12;;;;;;;9.07;8.17;;;;;;;26.06;30.43;102607.78;5075434;28;20501;-74
2021/03/30 10:35:38;;;;;;;7.53;6.90;;;;;;;26.59;30.18;102603.69;5051975;28;20679;-74
2021/03/30 10:38:03;;;;;;;8.90;8.20;;;;;;;25.37;31.59;102605.84;5056458;28;20446;-74
2021/03/30 10:40:33;;;;;;;8.37;7.47;;;;;;;26.51;29.78;102598.56;5064274;28;20440;-75
2021/03/30 10:43:24;;;;;;;7.27;6.57;;;;;;;25.12;32.23;102594.78;5078195;28;20244;-75
2021/03/30 10:45:51;;;;;;;8.03;7.30;;;;;;;25.45;31.48;102600.34;5056931;28;20462;-74
2021/03/30 10:48:17;;;;;;;7.60;6.90;;;;;;;25.20;31.14;102595.50;5070685;28;20868;-74
2021/03/30 10:50:42;;;;;;;7.90;6.70;;;;;;;26.22;29.69;102593.09;5069904;28;20438;-74
2021/03/30 10:53:08;;;;;;;7.20;6.60;;;;;;;26.89;28.31;102596.59;5056233;28;20574;-74
2021/03/30 10:55:34;;;;;;;8.17;7.37;;;;;;;24.81;31.09;102594.59;5051618;28;20188;-74
2021/03/30 10:58:06;;;;;;;7.67;6.90;;;;;;;24.96;31.69;102602.25;5062795;28;20235;-74
2021/03/30 11:00:32;;;;;;;9.63;6.93;;;;;;;24.87;31.48;102597.13;5064070;28;20295;-73
2021/03/30 11:02:58;;;;;;;8.23;7.30;;;;;;;24.83;32.18;102598.97;5060734;28;20531;-70
2021/03/30 11:05:24;;;;;;;7.33;6.63;;;;;;;24.95;32.11;102595.19;5069053;28;20188;-72
2021/03/30 11:07:49;;;;;;;7.97;6.50;;;;;;;25.13;31.07;102596.56;5065093;28;20856;-72
2021/03/30 11:10:14;;;;;;;7.63;6.70;;;;;;;25.86;30.93;102592.22;5061276;28;20260;-73
2021/03/30 11:12:40;;;;;;;7.70;6.90;;;;;;;25.58;30.91;102582.22;5068504;28;20212;-73
2021/03/30 11:15:07;;;;;;;7.37;6.67;;;;;;;27.22;28.19;102581.31;5074663;28;20196;-73
2021/03/30 11:17:32;;;;;;;7.53;6.83;;;;;;;25.77;30.20;102584.44;5058691;28;20209;-73
2021/03/30 11:19:57;;;;;;;8.17;6.60;;;;;;;24.82;31.06;102591.00;5063450;28;20455;-71
2021/03/30 11:22:23;;;;;;;8.40;7.63;;;;;;;25.08;31.22;102589.56;5062071;28;20515;-73